Accueil
METAR-TAF:

METAR-TAF

Aéroports :

Darlington County Jetport

Darlington, Caroline du Sud, États-Unis

latitude: 34-26-57N, longitude: 079-53-25W, altitude: 59 m

Observation

Le bulletin a été fait il y a 42 minutes, à 15:56 UTC
Vent 8 kt de nord/nord-est
Température 6°C
Humidité 56%
Pression 1029 hPa
Visibilité: 16.1 km
Ciel couvert à une hauteur de 4300 ft

METAR: KUDG 141556Z AUTO 03008KT 10SM OVC043 06/M02 A3038 RMK AO2 SLP288 T00611017

Heure: 11:38 (16:38 UTC)


TAF: absent

Observations et prévisions météorologiques de plus de 4000 aéroports (messages METAR et TAF).

Les stations disponibles sont représentées par des disques jaunes et rouges sur la carte.

Passer la souris dessus pour voir le nom de la station.

Cliquer dessus pour voir les observations et prévisions météorologiques.

Pour changer de carte: cliquez sur les boutons verts avec une croix noire pour zoomer, sur le bouton vert avec un tiret pour effectuer un zoom arrière, ou sur les flèches vertes pour les cartes adjacentes.


METAR-TAF: